createdAt,value
2022-08-16T00:02:24.746Z,1.70
2022-08-16T00:04:52.088Z,1.50
2022-08-16T00:07:19.674Z,1.20
2022-08-16T00:09:47.463Z,1.40
2022-08-16T00:12:17.898Z,1.13
2022-08-16T00:14:45.703Z,1.40
2022-08-16T00:17:18.677Z,1.30
2022-08-16T00:19:47.113Z,1.38
2022-08-16T00:22:16.085Z,1.30
2022-08-16T00:24:46.772Z,1.63
2022-08-16T00:27:14.548Z,1.27
2022-08-16T00:29:44.443Z,1.55
2022-08-16T00:32:18.068Z,1.50
2022-08-16T00:34:53.188Z,1.90
2022-08-16T00:37:24.531Z,1.33
2022-08-16T00:39:58.322Z,1.55
2022-08-16T00:42:29.733Z,1.52
2022-08-16T00:45:01.289Z,1.88
2022-08-16T00:47:35.322Z,1.50
2022-08-16T00:50:08.759Z,1.98
2022-08-16T00:52:43.789Z,1.77
2022-08-16T00:55:19.403Z,1.65
2022-08-16T00:57:59.743Z,1.50
2022-08-16T01:00:31.651Z,1.95
2022-08-16T01:03:02.241Z,1.88
2022-08-16T01:05:31.163Z,1.83
2022-08-16T01:08:01.122Z,1.77
2022-08-16T01:10:33.439Z,2.00
2022-08-16T01:13:07.874Z,2.13
2022-08-16T01:15:43.115Z,2.75
2022-08-16T01:18:39.465Z,3.45
2022-08-16T01:21:41.034Z,3.40
2022-08-16T01:24:51.450Z,2.92
2022-08-16T01:29:57.853Z,2.45
2022-08-16T01:32:33.635Z,3.25
2022-08-16T01:35:06.798Z,3.70
2022-08-16T01:37:42.523Z,3.28
2022-08-16T01:40:12.677Z,3.22
2022-08-16T01:42:42.424Z,2.97
2022-08-16T01:45:10.167Z,3.35
2022-08-16T01:47:49.377Z,3.65
2022-08-16T01:50:43.274Z,3.58
2022-08-16T01:53:08.102Z,3.35
2022-08-16T01:55:56.724Z,3.55
2022-08-16T01:58:24.176Z,3.40
2022-08-16T02:00:51.336Z,4.03
2022-08-16T02:03:18.378Z,3.85
2022-08-16T02:05:54.386Z,2.97
2022-08-16T02:08:33.584Z,3.50
2022-08-16T02:11:06.287Z,3.30
2022-08-16T02:13:35.264Z,3.60
2022-08-16T02:16:02.663Z,3.13
2022-08-16T02:18:29.635Z,3.53
2022-08-16T02:20:59.658Z,3.65
2022-08-16T02:23:26.795Z,4.15
2022-08-16T02:25:56.875Z,3.42
2022-08-16T02:28:26.833Z,3.70
2022-08-16T02:30:56.611Z,3.65
2022-08-16T02:33:44.668Z,4.07
2022-08-16T02:36:47.873Z,3.70
2022-08-16T02:39:10.233Z,3.50
2022-08-16T02:41:40.160Z,2.85
2022-08-16T02:44:11.367Z,3.42
2022-08-16T02:46:50.599Z,3.13
2022-08-16T02:49:21.845Z,3.67
2022-08-16T02:51:50.285Z,3.88
2022-08-16T02:54:17.451Z,3.97
2022-08-16T02:56:47.927Z,3.90
2022-08-16T02:59:15.588Z,3.35
2022-08-16T03:01:43.636Z,3.90
2022-08-16T03:04:29.170Z,3.60
2022-08-16T03:07:07.902Z,3.22
2022-08-16T03:09:44.731Z,4.00
2022-08-16T03:12:16.605Z,3.83
2022-08-16T03:14:45.085Z,3.38
2022-08-16T03:17:14.060Z,3.47
2022-08-16T03:19:48.269Z,4.78
2022-08-16T03:25:01.149Z,4.20
2022-08-16T03:27:32.311Z,3.90
2022-08-16T03:30:16.656Z,4.05
2022-08-16T03:32:51.689Z,3.60
2022-08-16T03:35:23.998Z,4.00
2022-08-16T03:38:03.933Z,4.15
2022-08-16T03:40:42.641Z,4.88
2022-08-16T03:43:20.581Z,3.90
2022-08-16T03:45:52.912Z,4.00
2022-08-16T03:48:36.949Z,4.32
2022-08-16T03:54:00.914Z,4.00
2022-08-16T03:56:30.845Z,4.15
2022-08-16T03:58:59.688Z,4.30
2022-08-16T04:01:31.983Z,4.03
2022-08-16T04:04:00.244Z,4.28
2022-08-16T04:06:28.202Z,4.25
2022-08-16T04:08:56.481Z,5.30
2022-08-16T04:11:24.661Z,4.65
2022-08-16T04:14:00.062Z,4.70
2022-08-16T04:16:41.892Z,5.32
2022-08-16T04:19:31.532Z,4.90
2022-08-16T04:22:00.888Z,4.50
2022-08-16T04:24:32.547Z,4.78
2022-08-16T04:26:59.860Z,5.20
2022-08-16T04:29:27.889Z,4.28
2022-08-16T04:32:11.647Z,4.32
2022-08-16T04:34:42.792Z,4.43
2022-08-16T04:37:12.442Z,4.85
2022-08-16T04:39:47.195Z,4.32
2022-08-16T04:42:26.296Z,4.22
2022-08-16T04:44:56.214Z,4.78
2022-08-16T04:47:33.516Z,4.30
2022-08-16T04:50:15.592Z,5.30
2022-08-16T04:53:01.621Z,5.10
2022-08-16T04:55:37.546Z,4.28
2022-08-16T04:58:44.198Z,3.67
2022-08-16T05:00:56.917Z,3.78
2022-08-16T05:03:24.642Z,4.68
2022-08-16T05:05:59.301Z,4.50
2022-08-16T05:08:34.273Z,4.97
2022-08-16T05:11:32.053Z,5.90
2022-08-16T05:14:05.651Z,5.25
2022-08-16T05:16:35.454Z,4.47
2022-08-16T05:19:11.772Z,4.72
2022-08-16T05:22:00.690Z,4.82
2022-08-16T05:24:27.753Z,5.38
2022-08-16T05:26:56.750Z,3.92
2022-08-16T05:30:00.809Z,4.10
2022-08-16T05:32:32.952Z,3.92
2022-08-16T05:35:07.761Z,4.07
2022-08-16T05:37:40.443Z,3.92
2022-08-16T05:40:13.256Z,3.88
2022-08-16T05:42:47.650Z,4.23
2022-08-16T05:45:22.188Z,3.90
2022-08-16T05:48:00.264Z,4.70
2022-08-16T05:50:41.740Z,4.10
2022-08-16T05:53:09.906Z,4.70
2022-08-16T05:55:44.391Z,3.78
2022-08-16T05:58:19.939Z,3.45
2022-08-16T06:01:01.052Z,3.67
2022-08-16T06:03:30.372Z,3.42
2022-08-16T06:06:00.921Z,3.75
2022-08-16T06:08:42.200Z,3.42
2022-08-16T06:11:13.265Z,3.58
2022-08-16T06:13:42.880Z,3.25
2022-08-16T06:16:18.227Z,3.22
2022-08-16T06:18:47.729Z,3.10
2022-08-16T06:21:22.848Z,2.70
2022-08-16T06:23:54.660Z,2.95
2022-08-16T06:26:23.507Z,3.42
2022-08-16T06:28:52.631Z,3.22
2022-08-16T06:31:28.077Z,4.10
2022-08-16T06:33:57.461Z,3.78
2022-08-16T06:36:26.560Z,3.95
2022-08-16T06:42:10.468Z,3.33
2022-08-16T06:44:55.544Z,4.30
2022-08-16T06:47:54.440Z,3.55
2022-08-16T06:50:29.441Z,4.78
2022-08-16T06:53:08.659Z,3.50
2022-08-16T06:55:45.187Z,3.25
2022-08-16T06:58:22.157Z,3.25
2022-08-16T07:00:52.995Z,3.85
2022-08-16T07:03:27.494Z,4.80
2022-08-16T07:05:57.297Z,3.70
2022-08-16T07:08:32.837Z,3.70
2022-08-16T07:11:00.050Z,3.60
2022-08-16T07:13:58.831Z,3.75
2022-08-16T07:16:20.813Z,4.32
2022-08-16T07:18:58.620Z,3.97
2022-08-16T07:21:28.250Z,3.63
2022-08-16T07:24:30.111Z,3.85
2022-08-16T07:27:08.605Z,4.47
2022-08-16T07:29:40.682Z,4.25
2022-08-16T07:32:10.027Z,4.25
2022-08-16T07:34:37.728Z,4.13
2022-08-16T07:37:18.715Z,3.92
2022-08-16T07:39:59.111Z,4.30
2022-08-16T07:42:34.848Z,3.38
2022-08-16T07:45:07.483Z,3.50
2022-08-16T07:47:37.955Z,3.83
2022-08-16T07:50:07.798Z,3.17
2022-08-16T07:52:38.614Z,3.10
2022-08-16T07:55:08.172Z,3.38
2022-08-16T07:57:44.287Z,3.75
2022-08-16T08:00:18.510Z,3.10
2022-08-16T08:02:52.196Z,3.83
2022-08-16T08:05:25.486Z,3.47
2022-08-16T08:08:11.788Z,3.65
2022-08-16T08:10:51.320Z,3.45
2022-08-16T08:13:19.037Z,2.92
2022-08-16T08:15:52.546Z,3.78
2022-08-16T08:18:29.942Z,2.70
2022-08-16T08:20:59.873Z,3.47
2022-08-16T08:25:58.589Z,2.80
2022-08-16T08:28:27.578Z,2.85
2022-08-16T08:31:03.008Z,2.78
2022-08-16T08:33:34.236Z,2.80
2022-08-16T08:36:07.413Z,3.30
2022-08-16T08:38:45.249Z,3.00
2022-08-16T08:41:19.013Z,2.90
2022-08-16T08:43:50.782Z,2.90
2022-08-16T08:46:21.696Z,3.78
2022-08-16T08:48:59.202Z,3.10
2022-08-16T08:51:35.575Z,3.08
2022-08-16T08:54:07.015Z,3.08
2022-08-16T08:56:45.417Z,3.03
2022-08-16T08:59:34.285Z,2.50
2022-08-16T09:02:10.064Z,2.50
2022-08-16T09:04:47.562Z,2.60
2022-08-16T09:07:18.890Z,1.95
2022-08-16T09:09:47.693Z,2.10
2022-08-16T09:12:31.281Z,2.20
2022-08-16T09:15:15.641Z,2.05
2022-08-16T09:17:52.151Z,2.20
2022-08-16T09:20:26.137Z,2.58
2022-08-16T09:22:54.485Z,2.17
2022-08-16T09:25:34.254Z,2.13
2022-08-16T09:28:08.901Z,2.42
2022-08-16T09:30:43.052Z,2.40
2022-08-16T09:33:12.765Z,2.03
2022-08-16T09:35:42.852Z,2.10
2022-08-16T09:38:31.605Z,2.65
2022-08-16T09:41:00.586Z,2.63
2022-08-16T09:43:58.505Z,2.45
2022-08-16T09:46:44.664Z,3.15
2022-08-16T09:49:03.272Z,2.63
2022-08-16T09:51:36.860Z,2.35
2022-08-16T09:54:05.938Z,2.72
2022-08-16T09:56:34.656Z,2.30
2022-08-16T09:59:07.724Z,2.83
2022-08-16T10:01:46.527Z,2.45
2022-08-16T10:04:29.961Z,2.03
2022-08-16T10:07:11.928Z,2.33
2022-08-16T10:09:53.993Z,2.83
2022-08-16T10:12:46.392Z,2.35
2022-08-16T10:15:23.220Z,2.58
2022-08-16T10:17:59.883Z,2.67
2022-08-16T10:20:34.539Z,2.85
2022-08-16T10:23:08.475Z,2.67
2022-08-16T10:27:20.844Z,2.40
2022-08-16T10:28:32.457Z,2.55
2022-08-16T10:31:08.428Z,2.75
2022-08-16T10:36:08.862Z,2.45
2022-08-16T10:38:40.013Z,2.70
2022-08-16T10:41:11.136Z,2.83
2022-08-16T10:43:43.326Z,2.70
2022-08-16T10:46:39.532Z,2.58
2022-08-16T10:49:00.938Z,2.88
2022-08-16T10:51:34.272Z,2.35
2022-08-16T10:54:29.781Z,2.60
2022-08-16T10:57:04.190Z,2.83
2022-08-16T10:59:44.083Z,2.10
2022-08-16T11:02:59.932Z,2.88
2022-08-16T11:05:11.593Z,2.28
2022-08-16T11:07:45.401Z,2.30
2022-08-16T11:16:27.531Z,2.55
2022-08-16T11:19:03.625Z,2.75
2022-08-16T11:21:32.196Z,2.35
2022-08-16T11:23:59.804Z,2.92
2022-08-16T11:26:27.492Z,2.50
2022-08-16T11:31:45.964Z,2.15
2022-08-16T11:34:21.320Z,2.75
2022-08-16T11:39:34.191Z,2.20
2022-08-16T11:42:02.479Z,2.13
2022-08-16T11:44:52.828Z,2.42
2022-08-16T11:47:16.377Z,2.35
2022-08-16T11:49:43.262Z,2.55
2022-08-16T11:52:11.520Z,2.55
2022-08-16T11:54:39.684Z,2.40
2022-08-16T11:57:09.427Z,2.75
2022-08-16T11:59:39.780Z,2.60
2022-08-16T12:02:31.000Z,2.45
2022-08-16T12:04:56.402Z,2.22
2022-08-16T12:07:24.197Z,2.00
2022-08-16T12:09:53.663Z,2.80
2022-08-16T12:12:23.700Z,2.58
2022-08-16T12:14:59.512Z,2.03
2022-08-16T12:17:29.101Z,2.17
2022-08-16T12:20:00.225Z,2.42
2022-08-16T12:22:28.165Z,2.05
2022-08-16T12:24:55.120Z,2.20
2022-08-16T12:27:24.024Z,2.45
2022-08-16T12:29:54.027Z,1.92
2022-08-16T12:32:37.961Z,2.30
2022-08-16T12:35:14.247Z,2.53
2022-08-16T12:37:42.375Z,2.15
2022-08-16T12:40:23.718Z,2.58
2022-08-16T12:45:23.528Z,2.10
2022-08-16T12:48:32.896Z,2.10
2022-08-16T12:50:58.104Z,2.53
2022-08-16T12:53:32.100Z,2.78
2022-08-16T12:55:59.738Z,2.50
2022-08-16T12:58:50.566Z,2.17
2022-08-16T13:01:15.058Z,2.15
2022-08-16T13:03:44.171Z,2.50
2022-08-16T13:06:12.522Z,2.15
2022-08-16T13:08:40.394Z,2.13
2022-08-16T13:11:08.137Z,2.13
2022-08-16T13:13:35.448Z,2.10
2022-08-16T13:16:15.443Z,2.70
2022-08-16T13:18:52.573Z,2.67
2022-08-16T13:21:23.344Z,2.40
2022-08-16T13:23:51.053Z,2.53
2022-08-16T13:26:20.519Z,2.50
2022-08-16T13:28:47.897Z,2.60
2022-08-16T13:31:16.894Z,2.58
2022-08-16T13:33:44.136Z,2.33
2022-08-16T13:36:21.115Z,2.67
2022-08-16T13:39:00.047Z,2.30
2022-08-16T13:41:29.991Z,3.42
2022-08-16T13:43:59.650Z,2.63
2022-08-16T13:46:27.496Z,2.47
2022-08-16T13:48:55.987Z,2.63
2022-08-16T13:51:25.532Z,2.97
2022-08-16T13:54:02.606Z,2.78
2022-08-16T13:56:37.591Z,2.60
2022-08-16T13:59:19.971Z,2.00
2022-08-16T14:01:55.026Z,2.90
2022-08-16T14:04:31.891Z,2.80
2022-08-16T14:07:00.807Z,2.10
2022-08-16T14:09:30.119Z,2.72
2022-08-16T14:11:58.554Z,2.20
2022-08-16T14:14:29.681Z,2.97
2022-08-16T14:17:02.195Z,2.45
2022-08-16T14:22:14.511Z,2.05
2022-08-16T14:24:46.609Z,2.90
2022-08-16T14:27:19.652Z,2.92
2022-08-16T14:29:52.295Z,2.50
2022-08-16T14:32:33.411Z,2.38
2022-08-16T14:35:36.864Z,2.15
2022-08-16T14:38:18.147Z,2.50
2022-08-16T14:43:20.252Z,2.10
2022-08-16T14:45:50.685Z,2.67
2022-08-16T14:48:25.175Z,2.88
2022-08-16T14:50:53.348Z,2.75
2022-08-16T14:53:20.780Z,2.65
2022-08-16T14:55:48.478Z,2.80
2022-08-16T14:58:18.966Z,2.70
2022-08-16T15:00:50.306Z,2.60
2022-08-16T15:03:23.198Z,2.42
2022-08-16T15:05:50.141Z,2.20
2022-08-16T15:08:21.663Z,2.92
2022-08-16T15:11:03.385Z,2.20
2022-08-16T15:13:30.460Z,2.53
2022-08-16T15:16:01.912Z,2.92
2022-08-16T15:18:32.009Z,2.70
2022-08-16T15:21:02.333Z,2.58
2022-08-16T15:23:31.585Z,2.58
2022-08-16T15:26:03.382Z,2.58
2022-08-16T15:28:32.964Z,2.08
2022-08-16T15:31:03.798Z,2.75
2022-08-16T15:33:34.120Z,2.80
2022-08-16T15:36:03.979Z,2.60
2022-08-16T15:38:57.920Z,2.83
2022-08-16T15:41:43.052Z,2.63
2022-08-16T15:44:13.121Z,3.05
2022-08-16T15:46:54.931Z,2.35
2022-08-16T15:49:25.315Z,2.92
2022-08-16T15:52:12.213Z,2.60
2022-08-16T15:54:43.844Z,2.88
2022-08-16T15:57:24.543Z,2.72
2022-08-16T15:59:52.371Z,2.50
2022-08-16T16:02:29.474Z,2.72
2022-08-16T16:05:00.982Z,2.20
2022-08-16T16:07:29.999Z,3.17
2022-08-16T16:09:59.320Z,2.95
2022-08-16T16:12:50.299Z,2.78
2022-08-16T16:15:17.653Z,2.75
2022-08-16T16:17:46.783Z,2.80
2022-08-16T16:20:19.456Z,3.50
2022-08-16T16:22:47.709Z,2.92
2022-08-16T16:25:15.949Z,2.92
2022-08-16T16:27:43.944Z,3.10
2022-08-16T16:30:32.842Z,2.88
2022-08-16T16:33:03.359Z,2.90
2022-08-16T16:35:34.907Z,2.72
2022-08-16T16:38:02.326Z,2.42
2022-08-16T16:40:38.943Z,2.65
2022-08-16T16:43:15.022Z,2.88
2022-08-16T16:45:44.059Z,2.58
2022-08-16T16:48:12.529Z,2.55
2022-08-16T16:50:44.742Z,2.45
2022-08-16T16:53:17.250Z,2.92
2022-08-16T16:55:51.567Z,3.13
2022-08-16T16:58:43.179Z,2.63
2022-08-16T17:01:11.360Z,2.67
2022-08-16T17:03:38.898Z,2.67
2022-08-16T17:06:09.078Z,2.42
2022-08-16T17:08:42.647Z,3.20
2022-08-16T17:11:12.335Z,2.78
2022-08-16T17:13:40.028Z,3.00
2022-08-16T17:16:18.646Z,3.00
2022-08-16T17:19:16.626Z,3.08
2022-08-16T17:21:34.432Z,2.67
2022-08-16T17:24:18.046Z,2.97
2022-08-16T17:26:49.174Z,3.33
2022-08-16T17:29:30.805Z,3.35
2022-08-16T17:32:02.559Z,2.75
2022-08-16T17:34:50.498Z,2.83
2022-08-16T17:37:22.084Z,3.08
2022-08-16T17:40:03.813Z,2.78
2022-08-16T17:42:33.917Z,3.63
2022-08-16T17:45:00.893Z,2.67
2022-08-16T17:47:27.813Z,2.35
2022-08-16T17:49:54.815Z,3.95
2022-08-16T17:52:25.079Z,2.90
2022-08-16T17:54:52.049Z,3.28
2022-08-16T17:57:18.908Z,2.88
2022-08-16T17:59:45.757Z,2.92
2022-08-16T18:02:42.560Z,3.33
2022-08-16T18:04:59.609Z,3.30
2022-08-16T18:07:26.604Z,3.33
2022-08-16T18:09:53.550Z,3.33
2022-08-16T18:12:51.281Z,2.78
2022-08-16T18:15:14.060Z,3.47
2022-08-16T18:17:43.874Z,3.70
2022-08-16T18:20:30.551Z,2.88
2022-08-16T18:23:15.024Z,3.10
2022-08-16T18:25:48.656Z,2.88
2022-08-16T18:28:15.933Z,3.08
2022-08-16T18:30:45.805Z,3.03
2022-08-16T18:33:17.246Z,3.80
2022-08-16T18:35:44.715Z,5.78
2022-08-16T18:38:11.936Z,4.15
2022-08-16T18:40:40.142Z,2.80
2022-08-16T18:43:11.197Z,3.30
2022-08-16T18:45:40.453Z,2.97
2022-08-16T18:48:08.652Z,2.97
2022-08-16T18:50:59.403Z,2.92
2022-08-16T18:53:24.910Z,2.92
2022-08-16T18:55:55.056Z,3.20
2022-08-16T18:58:21.972Z,3.55
2022-08-16T19:00:57.098Z,3.78
2022-08-16T19:03:31.834Z,2.78
2022-08-16T19:06:10.455Z,2.90
2022-08-16T19:08:39.654Z,3.45
2022-08-16T19:11:13.887Z,3.53
2022-08-16T19:13:44.322Z,3.38
2022-08-16T19:16:12.777Z,3.95
2022-08-16T19:18:40.474Z,2.80
2022-08-16T19:21:09.630Z,3.20
2022-08-16T19:23:38.343Z,3.92
2022-08-16T19:26:10.773Z,3.40
2022-08-16T19:28:50.848Z,3.70
2022-08-16T19:31:29.992Z,3.45
2022-08-16T19:33:57.411Z,2.88
2022-08-16T19:36:37.217Z,3.70
2022-08-16T19:39:16.768Z,2.53
2022-08-16T19:41:53.027Z,3.50
2022-08-16T19:44:22.368Z,2.92
2022-08-16T19:46:49.604Z,3.45
2022-08-16T19:49:19.452Z,3.13
2022-08-16T19:51:47.349Z,3.15
2022-08-16T19:54:14.802Z,3.00
2022-08-16T19:56:41.744Z,3.50
2022-08-16T19:59:40.179Z,3.30
2022-08-16T20:01:55.653Z,3.70
2022-08-16T20:04:23.737Z,3.35
2022-08-16T20:06:52.809Z,2.78
2022-08-16T20:09:21.352Z,3.70
2022-08-16T20:11:49.259Z,3.25
2022-08-16T20:14:24.451Z,3.97
2022-08-16T20:16:58.660Z,3.45
2022-08-16T20:19:28.342Z,3.17
2022-08-16T20:21:56.990Z,3.03
2022-08-16T20:24:35.341Z,3.00
2022-08-16T20:27:04.953Z,3.45
2022-08-16T20:29:32.021Z,3.20
2022-08-16T20:31:59.135Z,2.95
2022-08-16T20:34:26.029Z,2.85
2022-08-16T20:36:52.907Z,3.25
2022-08-16T20:39:19.785Z,3.88
2022-08-16T20:41:46.661Z,3.17
2022-08-16T20:44:13.568Z,3.55
2022-08-16T20:46:40.474Z,3.67
2022-08-16T20:49:09.185Z,3.97
2022-08-16T20:51:47.068Z,4.28
2022-08-16T20:54:19.424Z,2.77
2022-08-16T20:56:46.665Z,3.35
2022-08-16T20:59:13.677Z,3.65
2022-08-16T21:01:46.875Z,3.38
2022-08-16T21:04:21.583Z,3.20
2022-08-16T21:06:53.911Z,3.22
2022-08-16T21:09:23.829Z,3.55
2022-08-16T21:11:53.976Z,3.10
2022-08-16T21:14:23.525Z,3.22
2022-08-16T21:16:50.898Z,3.83
2022-08-16T21:19:17.900Z,3.55
2022-08-16T21:21:44.813Z,3.60
2022-08-16T21:24:11.927Z,3.40
2022-08-16T21:26:39.271Z,3.20
2022-08-16T21:29:07.814Z,3.38
2022-08-16T21:31:40.540Z,3.35
2022-08-16T21:34:08.221Z,3.25
2022-08-16T21:36:36.468Z,3.08
2022-08-16T21:39:06.827Z,2.88
2022-08-16T21:41:35.262Z,3.78
2022-08-16T21:44:02.319Z,3.42
2022-08-16T21:46:29.266Z,3.20
2022-08-16T21:48:56.196Z,3.45
2022-08-16T21:51:23.170Z,3.58
2022-08-16T21:53:50.117Z,3.15
2022-08-16T21:56:17.611Z,3.35
2022-08-16T21:58:52.446Z,3.22
2022-08-16T22:01:22.982Z,3.33
2022-08-16T22:04:35.885Z,3.70
2022-08-16T22:06:39.106Z,3.33
2022-08-16T22:09:10.496Z,3.35
2022-08-16T22:11:38.228Z,2.83
2022-08-16T22:14:05.136Z,2.92
2022-08-16T22:16:35.310Z,3.50
2022-08-16T22:19:03.212Z,3.00
2022-08-16T22:21:30.873Z,3.42
2022-08-16T22:23:58.891Z,3.10
2022-08-16T22:26:32.419Z,3.80
2022-08-16T22:29:09.648Z,3.30
2022-08-16T22:31:38.289Z,3.40
2022-08-16T22:34:05.572Z,3.10
2022-08-16T22:36:33.462Z,3.53
2022-08-16T22:39:04.944Z,3.47
2022-08-16T22:41:33.325Z,3.33
2022-08-16T22:44:05.180Z,3.50
2022-08-16T22:46:34.863Z,3.78
2022-08-16T22:49:02.569Z,3.22
2022-08-16T22:51:29.604Z,3.33
2022-08-16T22:53:56.800Z,3.72
2022-08-16T22:56:24.881Z,5.10
2022-08-16T22:58:51.965Z,4.38
2022-08-16T23:01:21.739Z,4.72
2022-08-16T23:03:48.777Z,4.35
2022-08-16T23:06:16.853Z,3.67
2022-08-16T23:08:44.466Z,3.83
2022-08-16T23:11:20.912Z,4.32
2022-08-16T23:13:54.004Z,3.72
2022-08-16T23:16:34.521Z,3.58
2022-08-16T23:19:08.320Z,3.42
2022-08-16T23:21:37.245Z,3.63
2022-08-16T23:24:04.874Z,3.63
2022-08-16T23:26:46.193Z,2.72
2022-08-16T23:29:23.443Z,3.38
2022-08-16T23:31:57.463Z,3.03
2022-08-16T23:34:26.837Z,3.40
2022-08-16T23:36:54.010Z,3.58
2022-08-16T23:39:20.968Z,3.47
2022-08-16T23:41:48.265Z,3.60
2022-08-16T23:44:56.743Z,3.20
2022-08-16T23:47:02.080Z,3.20
2022-08-16T23:49:56.076Z,3.40
2022-08-16T23:52:19.224Z,3.10
2022-08-16T23:55:06.714Z,3.72
2022-08-16T23:57:36.387Z,3.30
